sensor_id;sensor_type;location;lat;lon;timestamp;P1;durP1;ratioP1;P2;durP2;ratioP2
50012;SDS011;35901;48.694;9.476;2023-08-17T00:01:49;6.00;;;5.23;;
50012;SDS011;35901;48.694;9.476;2023-08-17T00:04:15;6.20;;;5.60;;
50012;SDS011;35901;48.694;9.476;2023-08-17T00:06:42;5.77;;;5.30;;
50012;SDS011;35901;48.694;9.476;2023-08-17T00:09:08;5.80;;;5.30;;
50012;SDS011;35901;48.694;9.476;2023-08-17T00:11:35;5.73;;;5.17;;
50012;SDS011;35901;48.694;9.476;2023-08-17T00:14:01;6.57;;;6.07;;
50012;SDS011;35901;48.694;9.476;2023-08-17T00:16:29;6.17;;;5.67;;
50012;SDS011;35901;48.694;9.476;2023-08-17T00:18:54;6.30;;;5.80;;
50012;SDS011;35901;48.694;9.476;2023-08-17T00:21:20;7.27;;;5.93;;
50012;SDS011;35901;48.694;9.476;2023-08-17T00:23:46;6.73;;;5.97;;
50012;SDS011;35901;48.694;9.476;2023-08-17T00:26:11;5.67;;;5.17;;
50012;SDS011;35901;48.694;9.476;2023-08-17T00:28:37;5.80;;;5.30;;
50012;SDS011;35901;48.694;9.476;2023-08-17T00:31:03;5.97;;;5.47;;
50012;SDS011;35901;48.694;9.476;2023-08-17T00:33:29;7.83;;;5.70;;
50012;SDS011;35901;48.694;9.476;2023-08-17T00:35:55;7.60;;;6.90;;
50012;SDS011;35901;48.694;9.476;2023-08-17T00:38:20;6.80;;;6.27;;
50012;SDS011;35901;48.694;9.476;2023-08-17T00:40:46;6.43;;;5.83;;
50012;SDS011;35901;48.694;9.476;2023-08-17T00:43:12;6.30;;;5.80;;
50012;SDS011;35901;48.694;9.476;2023-08-17T00:45:38;9.63;;;7.87;;
50012;SDS011;35901;48.694;9.476;2023-08-17T00:48:04;8.43;;;7.73;;
50012;SDS011;35901;48.694;9.476;2023-08-17T00:50:32;8.33;;;7.63;;
50012;SDS011;35901;48.694;9.476;2023-08-17T00:52:59;8.03;;;7.33;;
50012;SDS011;35901;48.694;9.476;2023-08-17T00:55:27;8.70;;;7.93;;
50012;SDS011;35901;48.694;9.476;2023-08-17T00:57:53;7.53;;;6.93;;
50012;SDS011;35901;48.694;9.476;2023-08-17T01:00:21;8.10;;;6.87;;
50012;SDS011;35901;48.694;9.476;2023-08-17T01:02:48;7.37;;;6.77;;
50012;SDS011;35901;48.694;9.476;2023-08-17T01:05:18;7.33;;;6.70;;
50012;SDS011;35901;48.694;9.476;2023-08-17T01:07:44;8.97;;;7.43;;
50012;SDS011;35901;48.694;9.476;2023-08-17T01:10:09;7.13;;;6.50;;
50012;SDS011;35901;48.694;9.476;2023-08-17T01:15:21;7.20;;;6.57;;
50012;SDS011;35901;48.694;9.476;2023-08-17T01:20:25;8.80;;;7.90;;
50012;SDS011;35901;48.694;9.476;2023-08-17T01:22:55;7.33;;;6.77;;
50012;SDS011;35901;48.694;9.476;2023-08-17T01:25:26;8.93;;;8.03;;
50012;SDS011;35901;48.694;9.476;2023-08-17T01:27:52;9.70;;;8.90;;
50012;SDS011;35901;48.694;9.476;2023-08-17T01:30:18;8.53;;;7.70;;
50012;SDS011;35901;48.694;9.476;2023-08-17T01:32:47;8.07;;;7.37;;
50012;SDS011;35901;48.694;9.476;2023-08-17T01:35:30;8.93;;;8.13;;
50012;SDS011;35901;48.694;9.476;2023-08-17T01:38:04;8.33;;;7.63;;
50012;SDS011;35901;48.694;9.476;2023-08-17T01:40:34;8.27;;;7.57;;
50012;SDS011;35901;48.694;9.476;2023-08-17T01:43:04;8.13;;;7.37;;
50012;SDS011;35901;48.694;9.476;2023-08-17T01:45:30;7.80;;;7.13;;
50012;SDS011;35901;48.694;9.476;2023-08-17T01:47:56;9.17;;;8.27;;
50012;SDS011;35901;48.694;9.476;2023-08-17T01:50:22;9.73;;;8.60;;
50012;SDS011;35901;48.694;9.476;2023-08-17T01:52:49;9.67;;;8.73;;
50012;SDS011;35901;48.694;9.476;2023-08-17T01:55:18;8.20;;;7.50;;
50012;SDS011;35901;48.694;9.476;2023-08-17T01:57:46;7.50;;;6.87;;
50012;SDS011;35901;48.694;9.476;2023-08-17T02:00:11;8.43;;;7.73;;
50012;SDS011;35901;48.694;9.476;2023-08-17T02:02:41;8.47;;;7.67;;
50012;SDS011;35901;48.694;9.476;2023-08-17T02:05:07;7.70;;;7.00;;
50012;SDS011;35901;48.694;9.476;2023-08-17T02:07:33;7.80;;;7.10;;
50012;SDS011;35901;48.694;9.476;2023-08-17T02:09:59;8.50;;;7.60;;
50012;SDS011;35901;48.694;9.476;2023-08-17T02:12:24;8.43;;;7.73;;
50012;SDS011;35901;48.694;9.476;2023-08-17T02:14:50;8.40;;;7.63;;
50012;SDS011;35901;48.694;9.476;2023-08-17T02:17:16;8.83;;;8.03;;
50012;SDS011;35901;48.694;9.476;2023-08-17T02:19:44;8.77;;;7.97;;
50012;SDS011;35901;48.694;9.476;2023-08-17T02:22:10;8.60;;;7.90;;
50012;SDS011;35901;48.694;9.476;2023-08-17T02:24:36;8.93;;;8.13;;
50012;SDS011;35901;48.694;9.476;2023-08-17T02:27:02;9.60;;;8.60;;
50012;SDS011;35901;48.694;9.476;2023-08-17T02:29:28;9.07;;;8.23;;
50012;SDS011;35901;48.694;9.476;2023-08-17T02:31:53;8.90;;;8.10;;
50012;SDS011;35901;48.694;9.476;2023-08-17T02:34:19;10.43;;;9.37;;
50012;SDS011;35901;48.694;9.476;2023-08-17T02:36:45;10.20;;;9.30;;
50012;SDS011;35901;48.694;9.476;2023-08-17T02:39:10;9.83;;;9.00;;
50012;SDS011;35901;48.694;9.476;2023-08-17T02:41:36;9.77;;;8.87;;
50012;SDS011;35901;48.694;9.476;2023-08-17T02:44:02;10.10;;;9.20;;
50012;SDS011;35901;48.694;9.476;2023-08-17T02:46:28;9.77;;;8.97;;
50012;SDS011;35901;48.694;9.476;2023-08-17T02:48:53;9.67;;;8.73;;
50012;SDS011;35901;48.694;9.476;2023-08-17T02:51:19;10.83;;;9.83;;
50012;SDS011;35901;48.694;9.476;2023-08-17T02:53:45;11.10;;;10.10;;
50012;SDS011;35901;48.694;9.476;2023-08-17T02:56:10;9.43;;;8.63;;
50012;SDS011;35901;48.694;9.476;2023-08-17T02:58:40;10.10;;;9.20;;
50012;SDS011;35901;48.694;9.476;2023-08-17T03:01:06;9.40;;;8.40;;
50012;SDS011;35901;48.694;9.476;2023-08-17T03:03:32;8.80;;;7.90;;
50012;SDS011;35901;48.694;9.476;2023-08-17T03:05:58;9.13;;;8.20;;
50012;SDS011;35901;48.694;9.476;2023-08-17T03:08:24;8.53;;;7.83;;
50012;SDS011;35901;48.694;9.476;2023-08-17T03:10:49;9.33;;;8.40;;
50012;SDS011;35901;48.694;9.476;2023-08-17T03:13:17;8.67;;;7.93;;
50012;SDS011;35901;48.694;9.476;2023-08-17T03:15:42;9.33;;;8.37;;
50012;SDS011;35901;48.694;9.476;2023-08-17T03:18:08;8.60;;;7.90;;
50012;SDS011;35901;48.694;9.476;2023-08-17T03:20:36;8.80;;;8.00;;
50012;SDS011;35901;48.694;9.476;2023-08-17T03:23:01;8.33;;;7.57;;
50012;SDS011;35901;48.694;9.476;2023-08-17T03:25:31;8.37;;;7.73;;
50012;SDS011;35901;48.694;9.476;2023-08-17T03:27:57;8.67;;;7.87;;
50012;SDS011;35901;48.694;9.476;2023-08-17T03:30:23;8.13;;;7.53;;
50012;SDS011;35901;48.694;9.476;2023-08-17T03:32:49;9.20;;;8.37;;
50012;SDS011;35901;48.694;9.476;2023-08-17T03:35:15;9.33;;;8.53;;
50012;SDS011;35901;48.694;9.476;2023-08-17T03:37:41;10.53;;;8.40;;
50012;SDS011;35901;48.694;9.476;2023-08-17T03:40:07;9.40;;;8.50;;
50012;SDS011;35901;48.694;9.476;2023-08-17T03:42:33;9.83;;;8.83;;
50012;SDS011;35901;48.694;9.476;2023-08-17T03:45:01;9.20;;;8.40;;
50012;SDS011;35901;48.694;9.476;2023-08-17T03:47:27;9.37;;;8.57;;
50012;SDS011;35901;48.694;9.476;2023-08-17T03:49:52;9.03;;;8.23;;
50012;SDS011;35901;48.694;9.476;2023-08-17T03:52:18;9.70;;;8.80;;
50012;SDS011;35901;48.694;9.476;2023-08-17T03:54:44;9.87;;;9.07;;
50012;SDS011;35901;48.694;9.476;2023-08-17T03:57:10;9.27;;;8.47;;
50012;SDS011;35901;48.694;9.476;2023-08-17T03:59:35;8.97;;;8.17;;
50012;SDS011;35901;48.694;9.476;2023-08-17T04:02:01;8.90;;;8.10;;
50012;SDS011;35901;48.694;9.476;2023-08-17T04:04:27;8.73;;;8.00;;
50012;SDS011;35901;48.694;9.476;2023-08-17T04:06:54;9.23;;;8.37;;
50012;SDS011;35901;48.694;9.476;2023-08-17T04:09:20;8.70;;;8.00;;
50012;SDS011;35901;48.694;9.476;2023-08-17T04:11:52;9.30;;;8.50;;
50012;SDS011;35901;48.694;9.476;2023-08-17T04:14:19;8.80;;;8.00;;
50012;SDS011;35901;48.694;9.476;2023-08-17T04:16:46;8.90;;;8.10;;
50012;SDS011;35901;48.694;9.476;2023-08-17T04:19:12;10.70;;;9.60;;
50012;SDS011;35901;48.694;9.476;2023-08-17T04:21:38;10.00;;;8.90;;
50012;SDS011;35901;48.694;9.476;2023-08-17T04:24:04;9.80;;;8.90;;
50012;SDS011;35901;48.694;9.476;2023-08-17T04:26:29;10.07;;;9.17;;
50012;SDS011;35901;48.694;9.476;2023-08-17T04:28:55;10.17;;;9.20;;
50012;SDS011;35901;48.694;9.476;2023-08-17T04:31:21;14.80;;;10.93;;
50012;SDS011;35901;48.694;9.476;2023-08-17T04:33:55;17.13;;;11.50;;
50012;SDS011;35901;48.694;9.476;2023-08-17T04:36:21;17.60;;;11.47;;
50012;SDS011;35901;48.694;9.476;2023-08-17T04:38:47;19.17;;;13.53;;
50012;SDS011;35901;48.694;9.476;2023-08-17T04:41:12;17.93;;;12.83;;
50012;SDS011;35901;48.694;9.476;2023-08-17T04:43:38;19.47;;;13.03;;
50012;SDS011;35901;48.694;9.476;2023-08-17T04:46:04;17.67;;;12.30;;
50012;SDS011;35901;48.694;9.476;2023-08-17T04:48:30;25.23;;;14.33;;
50012;SDS011;35901;48.694;9.476;2023-08-17T04:50:56;27.63;;;15.77;;
50012;SDS011;35901;48.694;9.476;2023-08-17T04:53:21;32.90;;;17.93;;
50012;SDS011;35901;48.694;9.476;2023-08-17T04:55:48;36.07;;;18.00;;
50012;SDS011;35901;48.694;9.476;2023-08-17T04:58:14;39.50;;;18.47;;
50012;SDS011;35901;48.694;9.476;2023-08-17T05:00:40;30.83;;;16.47;;
50012;SDS011;35901;48.694;9.476;2023-08-17T05:03:06;36.30;;;17.27;;
50012;SDS011;35901;48.694;9.476;2023-08-17T05:05:36;41.27;;;19.37;;
50012;SDS011;35901;48.694;9.476;2023-08-17T05:08:06;33.90;;;18.80;;
50012;SDS011;35901;48.694;9.476;2023-08-17T05:10:32;33.77;;;17.73;;
50012;SDS011;35901;48.694;9.476;2023-08-17T05:12:58;36.27;;;18.30;;
50012;SDS011;35901;48.694;9.476;2023-08-17T05:15:23;30.27;;;15.50;;
50012;SDS011;35901;48.694;9.476;2023-08-17T05:17:49;34.60;;;19.10;;
50012;SDS011;35901;48.694;9.476;2023-08-17T05:20:16;35.07;;;17.87;;
50012;SDS011;35901;48.694;9.476;2023-08-17T05:22:42;37.80;;;17.90;;
50012;SDS011;35901;48.694;9.476;2023-08-17T05:25:08;37.60;;;17.27;;
50012;SDS011;35901;48.694;9.476;2023-08-17T05:27:36;40.70;;;18.80;;
50012;SDS011;35901;48.694;9.476;2023-08-17T05:30:02;38.87;;;19.40;;
50012;SDS011;35901;48.694;9.476;2023-08-17T05:32:28;41.80;;;18.80;;
50012;SDS011;35901;48.694;9.476;2023-08-17T05:34:54;39.30;;;18.33;;
50012;SDS011;35901;48.694;9.476;2023-08-17T05:37:19;37.30;;;20.20;;
50012;SDS011;35901;48.694;9.476;2023-08-17T05:39:45;36.63;;;17.90;;
50012;SDS011;35901;48.694;9.476;2023-08-17T05:42:11;32.47;;;16.63;;
50012;SDS011;35901;48.694;9.476;2023-08-17T05:44:36;32.17;;;15.73;;
50012;SDS011;35901;48.694;9.476;2023-08-17T05:47:02;37.63;;;17.63;;
50012;SDS011;35901;48.694;9.476;2023-08-17T05:49:28;33.60;;;17.27;;
50012;SDS011;35901;48.694;9.476;2023-08-17T05:51:53;36.10;;;17.97;;
50012;SDS011;35901;48.694;9.476;2023-08-17T05:54:19;43.37;;;20.80;;
50012;SDS011;35901;48.694;9.476;2023-08-17T05:56:45;40.17;;;21.07;;
50012;SDS011;35901;48.694;9.476;2023-08-17T05:59:12;44.53;;;22.50;;
50012;SDS011;35901;48.694;9.476;2023-08-17T06:01:39;41.87;;;22.53;;
50012;SDS011;35901;48.694;9.476;2023-08-17T06:04:05;30.90;;;20.63;;
50012;SDS011;35901;48.694;9.476;2023-08-17T06:06:33;33.17;;;20.90;;
50012;SDS011;35901;48.694;9.476;2023-08-17T06:08:59;27.47;;;18.83;;
50012;SDS011;35901;48.694;9.476;2023-08-17T06:11:25;32.20;;;20.80;;
50012;SDS011;35901;48.694;9.476;2023-08-17T06:13:51;32.20;;;19.93;;
50012;SDS011;35901;48.694;9.476;2023-08-17T06:16:17;27.27;;;18.20;;
50012;SDS011;35901;48.694;9.476;2023-08-17T06:18:42;28.97;;;19.47;;
50012;SDS011;35901;48.694;9.476;2023-08-17T06:21:08;29.90;;;20.03;;
50012;SDS011;35901;48.694;9.476;2023-08-17T06:23:34;26.87;;;19.30;;
50012;SDS011;35901;48.694;9.476;2023-08-17T06:26:00;32.80;;;23.40;;
50012;SDS011;35901;48.694;9.476;2023-08-17T06:28:26;28.23;;;20.37;;
50012;SDS011;35901;48.694;9.476;2023-08-17T06:30:52;25.97;;;19.77;;
50012;SDS011;35901;48.694;9.476;2023-08-17T06:33:19;27.37;;;18.97;;
50012;SDS011;35901;48.694;9.476;2023-08-17T06:35:44;24.23;;;18.47;;
50012;SDS011;35901;48.694;9.476;2023-08-17T06:38:10;21.60;;;17.40;;
50012;SDS011;35901;48.694;9.476;2023-08-17T06:40:36;23.43;;;17.47;;
50012;SDS011;35901;48.694;9.476;2023-08-17T06:43:02;27.13;;;20.13;;
50012;SDS011;35901;48.694;9.476;2023-08-17T06:45:27;21.53;;;16.60;;
50012;SDS011;35901;48.694;9.476;2023-08-17T06:47:53;25.67;;;19.10;;
50012;SDS011;35901;48.694;9.476;2023-08-17T06:50:19;26.93;;;19.00;;
50012;SDS011;35901;48.694;9.476;2023-08-17T06:52:44;29.50;;;19.93;;
50012;SDS011;35901;48.694;9.476;2023-08-17T06:55:10;25.17;;;20.20;;
50012;SDS011;35901;48.694;9.476;2023-08-17T06:57:36;22.23;;;18.47;;
50012;SDS011;35901;48.694;9.476;2023-08-17T07:00:02;21.40;;;18.20;;
50012;SDS011;35901;48.694;9.476;2023-08-17T07:02:30;20.27;;;17.93;;
50012;SDS011;35901;48.694;9.476;2023-08-17T07:04:56;23.77;;;18.27;;
50012;SDS011;35901;48.694;9.476;2023-08-17T07:07:22;21.30;;;17.73;;
50012;SDS011;35901;48.694;9.476;2023-08-17T07:09:47;17.17;;;15.03;;
50012;SDS011;35901;48.694;9.476;2023-08-17T07:12:13;13.93;;;12.50;;
50012;SDS011;35901;48.694;9.476;2023-08-17T07:14:39;13.40;;;12.07;;
50012;SDS011;35901;48.694;9.476;2023-08-17T07:17:04;16.20;;;13.50;;
50012;SDS011;35901;48.694;9.476;2023-08-17T07:19:30;15.27;;;13.67;;
50012;SDS011;35901;48.694;9.476;2023-08-17T07:21:56;16.90;;;13.97;;
50012;SDS011;35901;48.694;9.476;2023-08-17T07:24:21;16.50;;;14.53;;
50012;SDS011;35901;48.694;9.476;2023-08-17T07:26:47;14.97;;;13.37;;
50012;SDS011;35901;48.694;9.476;2023-08-17T07:29:12;13.20;;;11.87;;
50012;SDS011;35901;48.694;9.476;2023-08-17T07:31:38;17.07;;;13.90;;
50012;SDS011;35901;48.694;9.476;2023-08-17T07:34:05;15.27;;;12.50;;
50012;SDS011;35901;48.694;9.476;2023-08-17T07:36:31;12.80;;;11.43;;
50012;SDS011;35901;48.694;9.476;2023-08-17T07:38:58;12.80;;;11.27;;
50012;SDS011;35901;48.694;9.476;2023-08-17T07:41:23;11.77;;;10.57;;
50012;SDS011;35901;48.694;9.476;2023-08-17T07:43:49;12.03;;;10.50;;
50012;SDS011;35901;48.694;9.476;2023-08-17T07:46:15;11.27;;;10.17;;
50012;SDS011;35901;48.694;9.476;2023-08-17T07:48:40;9.93;;;9.00;;
50012;SDS011;35901;48.694;9.476;2023-08-17T07:51:06;11.90;;;10.80;;
50012;SDS011;35901;48.694;9.476;2023-08-17T07:53:32;11.50;;;10.43;;
50012;SDS011;35901;48.694;9.476;2023-08-17T07:55:58;11.47;;;10.30;;
50012;SDS011;35901;48.694;9.476;2023-08-17T07:58:23;11.43;;;10.37;;
50012;SDS011;35901;48.694;9.476;2023-08-17T08:00:49;11.77;;;10.57;;
50012;SDS011;35901;48.694;9.476;2023-08-17T08:03:15;12.10;;;11.00;;
50012;SDS011;35901;48.694;9.476;2023-08-17T08:05:40;10.43;;;9.43;;
50012;SDS011;35901;48.694;9.476;2023-08-17T08:08:06;10.03;;;9.10;;
50012;SDS011;35901;48.694;9.476;2023-08-17T08:10:32;10.80;;;9.70;;
50012;SDS011;35901;48.694;9.476;2023-08-17T08:12:57;9.07;;;8.27;;
50012;SDS011;35901;48.694;9.476;2023-08-17T08:15:23;8.90;;;8.10;;
50012;SDS011;35901;48.694;9.476;2023-08-17T08:17:49;9.27;;;8.17;;
50012;SDS011;35901;48.694;9.476;2023-08-17T08:20:14;8.57;;;7.87;;
50012;SDS011;35901;48.694;9.476;2023-08-17T08:22:40;7.60;;;6.90;;
50012;SDS011;35901;48.694;9.476;2023-08-17T08:25:06;8.27;;;6.93;;
50012;SDS011;35901;48.694;9.476;2023-08-17T08:27:32;7.10;;;6.50;;
50012;SDS011;35901;48.694;9.476;2023-08-17T08:29:57;7.63;;;7.00;;
50012;SDS011;35901;48.694;9.476;2023-08-17T08:32:23;7.87;;;7.17;;
50012;SDS011;35901;48.694;9.476;2023-08-17T08:34:49;7.60;;;7.00;;
50012;SDS011;35901;48.694;9.476;2023-08-17T08:37:14;7.17;;;6.57;;
50012;SDS011;35901;48.694;9.476;2023-08-17T08:39:54;7.77;;;7.07;;
50012;SDS011;35901;48.694;9.476;2023-08-17T08:42:21;7.30;;;6.70;;
50012;SDS011;35901;48.694;9.476;2023-08-17T08:44:47;7.10;;;6.50;;
50012;SDS011;35901;48.694;9.476;2023-08-17T08:47:14;6.97;;;6.37;;
50012;SDS011;35901;48.694;9.476;2023-08-17T08:49:46;7.80;;;7.10;;
50012;SDS011;35901;48.694;9.476;2023-08-17T08:55:29;9.07;;;8.27;;
50012;SDS011;35901;48.694;9.476;2023-08-17T08:57:59;7.37;;;6.70;;
50012;SDS011;35901;48.694;9.476;2023-08-17T09:00:25;7.00;;;6.30;;
50012;SDS011;35901;48.694;9.476;2023-08-17T09:02:52;6.67;;;6.17;;
50012;SDS011;35901;48.694;9.476;2023-08-17T09:05:18;7.27;;;6.40;;
50012;SDS011;35901;48.694;9.476;2023-08-17T09:07:44;8.50;;;7.73;;
50012;SDS011;35901;48.694;9.476;2023-08-17T09:10:16;9.57;;;8.00;;
50012;SDS011;35901;48.694;9.476;2023-08-17T09:12:43;6.20;;;5.70;;
50012;SDS011;35901;48.694;9.476;2023-08-17T09:15:10;8.10;;;7.40;;
50012;SDS011;35901;48.694;9.476;2023-08-17T09:17:36;6.90;;;6.30;;
50012;SDS011;35901;48.694;9.476;2023-08-17T09:20:04;6.50;;;6.00;;
50012;SDS011;35901;48.694;9.476;2023-08-17T09:25:05;5.33;;;4.93;;
50012;SDS011;35901;48.694;9.476;2023-08-17T09:27:31;5.70;;;5.30;;
50012;SDS011;35901;48.694;9.476;2023-08-17T09:30:09;6.37;;;5.87;;
50012;SDS011;35901;48.694;9.476;2023-08-17T09:32:36;6.10;;;5.63;;
50012;SDS011;35901;48.694;9.476;2023-08-17T09:35:04;5.57;;;5.07;;
50012;SDS011;35901;48.694;9.476;2023-08-17T09:37:31;5.50;;;5.07;;
50012;SDS011;35901;48.694;9.476;2023-08-17T09:39:57;5.90;;;5.37;;
50012;SDS011;35901;48.694;9.476;2023-08-17T09:42:23;5.53;;;5.13;;
50012;SDS011;35901;48.694;9.476;2023-08-17T09:44:51;5.50;;;5.03;;
50012;SDS011;35901;48.694;9.476;2023-08-17T09:47:17;5.80;;;5.30;;
50012;SDS011;35901;48.694;9.476;2023-08-17T09:49:51;6.32;;;5.72;;
50012;SDS011;35901;48.694;9.476;2023-08-17T09:52:21;6.10;;;5.60;;
50012;SDS011;35901;48.694;9.476;2023-08-17T09:54:47;5.70;;;5.30;;
50012;SDS011;35901;48.694;9.476;2023-08-17T09:57:13;7.03;;;6.43;;
50012;SDS011;35901;48.694;9.476;2023-08-17T09:59:39;6.10;;;5.50;;
50012;SDS011;35901;48.694;9.476;2023-08-17T10:02:24;5.75;;;5.25;;
50012;SDS011;35901;48.694;9.476;2023-08-17T10:04:51;5.65;;;5.00;;
50012;SDS011;35901;48.694;9.476;2023-08-17T10:07:19;5.20;;;4.78;;
50012;SDS011;35901;48.694;9.476;2023-08-17T10:09:48;5.60;;;5.20;;
50012;SDS011;35901;48.694;9.476;2023-08-17T10:12:19;6.07;;;5.03;;
50012;SDS011;35901;48.694;9.476;2023-08-17T10:14:50;5.20;;;4.85;;
50012;SDS011;35901;48.694;9.476;2023-08-17T10:17:23;5.38;;;4.97;;
50012;SDS011;35901;48.694;9.476;2023-08-17T10:19:57;5.40;;;5.00;;
50012;SDS011;35901;48.694;9.476;2023-08-17T10:22:38;5.55;;;5.15;;
50012;SDS011;35901;48.694;9.476;2023-08-17T10:25:09;6.30;;;5.70;;
50012;SDS011;35901;48.694;9.476;2023-08-17T10:27:38;6.00;;;5.50;;
50012;SDS011;35901;48.694;9.476;2023-08-17T10:30:07;5.90;;;5.40;;
50012;SDS011;35901;48.694;9.476;2023-08-17T10:32:37;5.35;;;4.85;;
50012;SDS011;35901;48.694;9.476;2023-08-17T10:35:04;4.47;;;4.18;;
50012;SDS011;35901;48.694;9.476;2023-08-17T10:37:31;4.65;;;4.25;;
50012;SDS011;35901;48.694;9.476;2023-08-17T10:39:57;5.13;;;4.70;;
50012;SDS011;35901;48.694;9.476;2023-08-17T10:42:34;4.75;;;4.40;;
50012;SDS011;35901;48.694;9.476;2023-08-17T10:45:01;5.07;;;4.68;;
50012;SDS011;35901;48.694;9.476;2023-08-17T10:47:48;5.00;;;4.50;;
50012;SDS011;35901;48.694;9.476;2023-08-17T10:50:23;4.70;;;4.40;;
50012;SDS011;35901;48.694;9.476;2023-08-17T10:52:50;4.68;;;4.30;;
50012;SDS011;35901;48.694;9.476;2023-08-17T10:55:20;4.70;;;4.40;;
50012;SDS011;35901;48.694;9.476;2023-08-17T10:58:07;5.47;;;5.07;;
50012;SDS011;35901;48.694;9.476;2023-08-17T11:00:37;4.63;;;4.25;;
50012;SDS011;35901;48.694;9.476;2023-08-17T11:03:04;5.38;;;4.50;;
50012;SDS011;35901;48.694;9.476;2023-08-17T11:08:08;5.05;;;4.57;;
50012;SDS011;35901;48.694;9.476;2023-08-17T11:10:36;4.70;;;4.30;;
50012;SDS011;35901;48.694;9.476;2023-08-17T11:13:03;4.95;;;4.47;;
50012;SDS011;35901;48.694;9.476;2023-08-17T11:15:41;4.65;;;4.25;;
50012;SDS011;35901;48.694;9.476;2023-08-17T11:18:08;5.10;;;4.25;;
50012;SDS011;35901;48.694;9.476;2023-08-17T11:20:35;5.07;;;4.68;;
50012;SDS011;35901;48.694;9.476;2023-08-17T11:23:03;4.38;;;4.07;;
50012;SDS011;35901;48.694;9.476;2023-08-17T11:25:29;4.70;;;4.40;;
50012;SDS011;35901;48.694;9.476;2023-08-17T11:27:57;4.45;;;4.05;;
50012;SDS011;35901;48.694;9.476;2023-08-17T11:30:24;4.38;;;4.03;;
50012;SDS011;35901;48.694;9.476;2023-08-17T11:32:51;4.68;;;4.32;;
50012;SDS011;35901;48.694;9.476;2023-08-17T11:35:18;4.22;;;3.95;;
50012;SDS011;35901;48.694;9.476;2023-08-17T11:37:44;4.50;;;4.10;;
50012;SDS011;35901;48.694;9.476;2023-08-17T11:40:13;4.20;;;3.90;;
50012;SDS011;35901;48.694;9.476;2023-08-17T11:42:40;4.32;;;3.92;;
50012;SDS011;35901;48.694;9.476;2023-08-17T11:45:07;4.35;;;3.78;;
50012;SDS011;35901;48.694;9.476;2023-08-17T11:47:40;4.00;;;3.70;;
50012;SDS011;35901;48.694;9.476;2023-08-17T11:50:08;4.60;;;4.28;;
50012;SDS011;35901;48.694;9.476;2023-08-17T11:52:35;4.47;;;4.18;;
50012;SDS011;35901;48.694;9.476;2023-08-17T11:55:02;4.80;;;4.40;;
50012;SDS011;35901;48.694;9.476;2023-08-17T11:57:32;4.90;;;4.50;;
50012;SDS011;35901;48.694;9.476;2023-08-17T12:00:03;4.60;;;4.30;;
50012;SDS011;35901;48.694;9.476;2023-08-17T12:02:31;4.18;;;3.78;;
50012;SDS011;35901;48.694;9.476;2023-08-17T12:04:58;4.53;;;4.13;;
50012;SDS011;35901;48.694;9.476;2023-08-17T12:07:31;4.53;;;4.13;;
50012;SDS011;35901;48.694;9.476;2023-08-17T12:09:57;5.00;;;4.32;;
50012;SDS011;35901;48.694;9.476;2023-08-17T12:12:23;5.18;;;4.38;;
50012;SDS011;35901;48.694;9.476;2023-08-17T12:14:49;4.97;;;4.53;;
50012;SDS011;35901;48.694;9.476;2023-08-17T12:17:15;4.50;;;4.20;;
50012;SDS011;35901;48.694;9.476;2023-08-17T12:19:44;5.00;;;4.60;;
50012;SDS011;35901;48.694;9.476;2023-08-17T12:22:13;5.15;;;4.75;;
50012;SDS011;35901;48.694;9.476;2023-08-17T12:24:39;5.07;;;4.68;;
50012;SDS011;35901;48.694;9.476;2023-08-17T12:27:07;5.03;;;4.63;;
50012;SDS011;35901;48.694;9.476;2023-08-17T12:29:33;5.63;;;4.75;;
50012;SDS011;35901;48.694;9.476;2023-08-17T12:32:00;4.90;;;4.50;;
50012;SDS011;35901;48.694;9.476;2023-08-17T12:34:27;4.80;;;4.40;;
50012;SDS011;35901;48.694;9.476;2023-08-17T12:36:53;5.30;;;4.60;;
50012;SDS011;35901;48.694;9.476;2023-08-17T12:39:18;4.90;;;4.50;;
50012;SDS011;35901;48.694;9.476;2023-08-17T12:41:44;5.20;;;4.70;;
50012;SDS011;35901;48.694;9.476;2023-08-17T12:44:10;4.70;;;4.40;;
50012;SDS011;35901;48.694;9.476;2023-08-17T12:46:41;5.23;;;4.80;;
50012;SDS011;35901;48.694;9.476;2023-08-17T12:49:07;5.87;;;4.83;;
50012;SDS011;35901;48.694;9.476;2023-08-17T12:51:33;4.87;;;4.37;;
50012;SDS011;35901;48.694;9.476;2023-08-17T12:53:59;4.20;;;3.90;;
50012;SDS011;35901;48.694;9.476;2023-08-17T12:56:24;4.80;;;4.40;;
50012;SDS011;35901;48.694;9.476;2023-08-17T12:58:51;4.37;;;3.90;;
50012;SDS011;35901;48.694;9.476;2023-08-17T13:01:16;4.40;;;4.07;;
50012;SDS011;35901;48.694;9.476;2023-08-17T13:03:43;4.90;;;4.47;;
50012;SDS011;35901;48.694;9.476;2023-08-17T13:06:09;5.20;;;4.70;;
50012;SDS011;35901;48.694;9.476;2023-08-17T13:08:35;5.87;;;5.27;;
50012;SDS011;35901;48.694;9.476;2023-08-17T13:11:00;5.70;;;5.30;;
50012;SDS011;35901;48.694;9.476;2023-08-17T13:13:26;4.93;;;4.63;;
50012;SDS011;35901;48.694;9.476;2023-08-17T13:15:52;5.40;;;4.90;;
50012;SDS011;35901;48.694;9.476;2023-08-17T13:18:18;5.20;;;4.80;;
50012;SDS011;35901;48.694;9.476;2023-08-17T13:20:43;6.20;;;5.60;;
50012;SDS011;35901;48.694;9.476;2023-08-17T13:23:10;5.97;;;5.50;;
50012;SDS011;35901;48.694;9.476;2023-08-17T13:25:35;6.80;;;6.30;;
50012;SDS011;35901;48.694;9.476;2023-08-17T13:28:01;7.43;;;6.80;;
50012;SDS011;35901;48.694;9.476;2023-08-17T13:30:27;6.43;;;5.83;;
50012;SDS011;35901;48.694;9.476;2023-08-17T13:32:53;7.50;;;6.80;;
50012;SDS011;35901;48.694;9.476;2023-08-17T13:35:19;7.20;;;6.57;;
50012;SDS011;35901;48.694;9.476;2023-08-17T13:37:44;7.00;;;6.50;;
50012;SDS011;35901;48.694;9.476;2023-08-17T13:40:10;7.20;;;6.60;;
50012;SDS011;35901;48.694;9.476;2023-08-17T13:42:36;7.17;;;6.47;;
50012;SDS011;35901;48.694;9.476;2023-08-17T13:45:02;7.60;;;6.90;;
50012;SDS011;35901;48.694;9.476;2023-08-17T13:47:28;6.30;;;5.70;;
50012;SDS011;35901;48.694;9.476;2023-08-17T13:49:54;7.00;;;6.40;;
50012;SDS011;35901;48.694;9.476;2023-08-17T13:52:21;7.47;;;6.60;;
50012;SDS011;35901;48.694;9.476;2023-08-17T13:54:47;6.60;;;6.10;;
50012;SDS011;35901;48.694;9.476;2023-08-17T13:57:13;7.03;;;6.43;;
50012;SDS011;35901;48.694;9.476;2023-08-17T13:59:39;7.63;;;6.93;;
50012;SDS011;35901;48.694;9.476;2023-08-17T14:02:05;9.83;;;7.30;;
50012;SDS011;35901;48.694;9.476;2023-08-17T14:04:31;13.20;;;7.13;;
50012;SDS011;35901;48.694;9.476;2023-08-17T14:06:57;10.53;;;7.37;;
50012;SDS011;35901;48.694;9.476;2023-08-17T14:09:22;8.27;;;7.23;;
50012;SDS011;35901;48.694;9.476;2023-08-17T14:11:48;8.20;;;7.47;;
50012;SDS011;35901;48.694;9.476;2023-08-17T14:14:13;8.43;;;7.73;;
50012;SDS011;35901;48.694;9.476;2023-08-17T14:16:39;10.03;;;8.27;;
50012;SDS011;35901;48.694;9.476;2023-08-17T14:19:05;8.90;;;8.10;;
50012;SDS011;35901;48.694;9.476;2023-08-17T14:21:31;7.07;;;6.50;;
50012;SDS011;35901;48.694;9.476;2023-08-17T14:23:56;7.93;;;7.13;;
50012;SDS011;35901;48.694;9.476;2023-08-17T14:26:22;8.67;;;7.33;;
50012;SDS011;35901;48.694;9.476;2023-08-17T14:28:48;8.23;;;7.47;;
50012;SDS011;35901;48.694;9.476;2023-08-17T14:31:13;7.60;;;7.00;;
50012;SDS011;35901;48.694;9.476;2023-08-17T14:33:42;7.93;;;7.23;;
50012;SDS011;35901;48.694;9.476;2023-08-17T14:36:11;7.57;;;6.87;;
50012;SDS011;35901;48.694;9.476;2023-08-17T14:38:37;8.47;;;7.70;;
50012;SDS011;35901;48.694;9.476;2023-08-17T14:41:03;7.80;;;7.10;;
50012;SDS011;35901;48.694;9.476;2023-08-17T14:43:29;7.83;;;7.27;;
50012;SDS011;35901;48.694;9.476;2023-08-17T14:45:55;7.90;;;7.30;;
50012;SDS011;35901;48.694;9.476;2023-08-17T14:48:22;7.90;;;7.20;;
50012;SDS011;35901;48.694;9.476;2023-08-17T14:50:47;7.57;;;6.90;;
50012;SDS011;35901;48.694;9.476;2023-08-17T14:53:13;7.23;;;6.63;;